Time;durP1;ratioP1;P1;durP2;ratioP2;P2;SDS_P1;SDS_P2;PMS_P1;PMS_P2;Temp;Humidity;BMP_temperature;BMP_pressure;BME280_temperature;BME280_humidity;BME280_pressure;Samples;Min_cycle;Max_cycle;Signal;HPM_P1;HPM_P2
2023/09/08 00:00:47;;;;;;;50.60;48.20;;;;;;;16.41;100.00;101607.03;5018402;28;20056;-77
2023/09/08 00:03:14;;;;;;;41.67;39.55;;;;;;;15.88;100.00;101615.56;5031613;28;20061;-77
2023/09/08 00:05:42;;;;;;;39.97;37.83;;;;;;;15.87;100.00;101611.25;5030231;28;20121;-75
2023/09/08 00:08:11;;;;;;;49.28;46.78;;;;;;;16.21;100.00;101607.22;5021792;28;20045;-77
2023/09/08 00:10:38;;;;;;;46.65;44.35;;;;;;;15.76;100.00;101607.41;5021001;28;20049;-75
2023/09/08 00:13:05;;;;;;;40.45;38.35;;;;;;;16.23;100.00;101611.31;5018597;28;20049;-76
2023/09/08 00:15:37;;;;;;;42.15;39.95;;;;;;;15.96;100.00;101612.63;5012870;28;20046;-76
2023/09/08 00:18:07;;;;;;;44.90;42.70;;;;;;;15.74;100.00;101607.66;5022086;28;20045;-77
2023/09/08 00:20:34;;;;;;;45.47;43.15;;;;;;;15.89;100.00;101596.59;5025288;28;20045;-76
2023/09/08 00:23:05;;;;;;;39.05;36.95;;;;;;;16.05;100.00;101605.13;5029490;28;20088;-76
2023/09/08 00:25:36;;;;;;;47.20;44.40;;;;;;;16.01;100.00;101594.03;5029129;28;20037;-75
2023/09/08 00:28:03;;;;;;;39.15;37.05;;;;;;;16.02;100.00;101591.13;5023180;28;20045;-76
2023/09/08 00:30:30;;;;;;;34.25;32.25;;;;;;;15.67;100.00;101592.63;5021411;28;20045;-76
2023/09/08 00:32:57;;;;;;;36.05;33.95;;;;;;;15.68;100.00;101594.31;5025077;28;20053;-76
2023/09/08 00:35:27;;;;;;;45.75;43.45;;;;;;;16.06;100.00;101594.16;5022493;28;20056;-76
2023/09/08 00:37:55;;;;;;;40.08;37.97;;;;;;;16.06;100.00;101594.16;5016201;28;20058;-77
2023/09/08 00:40:22;;;;;;;42.60;40.40;;;;;;;16.00;100.00;101595.06;5013937;28;20049;-76
2023/09/08 00:42:51;;;;;;;42.85;40.65;;;;;;;15.83;100.00;101599.34;5024474;28;20132;-76
2023/09/08 00:45:24;;;;;;;38.03;35.92;;;;;;;15.66;100.00;101601.72;5017614;28;20530;-76
2023/09/08 00:47:53;;;;;;;45.70;43.20;;;;;;;15.64;100.00;101601.91;5017388;28;20046;-77
2023/09/08 00:50:20;;;;;;;45.05;42.50;;;;;;;15.66;100.00;101605.19;5022426;28;20058;-76
2023/09/08 00:52:47;;;;;;;38.90;36.30;;;;;;;15.65;100.00;101605.44;5014746;28;20077;-77
2023/09/08 00:55:17;;;;;;;41.08;38.67;;;;;;;15.53;100.00;101599.97;5015421;28;20132;-76
2023/09/08 00:57:58;;;;;;;43.97;41.47;;;;;;;15.75;100.00;101598.56;5021465;28;20047;-76
2023/09/08 01:00:25;;;;;;;40.10;37.90;;;;;;;15.67;100.00;101604.19;5028453;28;20541;-76
2023/09/08 01:03:01;;;;;;;43.97;41.58;;;;;;;15.37;100.00;101611.16;5027061;28;20124;-76
2023/09/08 01:05:28;;;;;;;44.40;41.90;;;;;;;15.16;100.00;101607.81;5027203;28;20041;-76
2023/09/08 01:07:55;;;;;;;39.08;36.97;;;;;;;15.25;100.00;101606.53;5028616;28;20095;-76
2023/09/08 01:10:22;;;;;;;44.03;41.83;;;;;;;15.39;100.00;101601.91;5017190;28;20049;-76
2023/09/08 01:12:55;;;;;;;45.40;42.90;;;;;;;15.61;100.00;101602.34;5016940;28;20160;-76
2023/09/08 01:15:26;;;;;;;42.63;40.22;;;;;;;15.24;100.00;101602.19;5024595;28;20124;-76
2023/09/08 01:17:56;;;;;;;42.83;40.38;;;;;;;14.93;100.00;101597.63;5018355;28;20053;-76
2023/09/08 01:20:28;;;;;;;33.85;31.63;;;;;;;14.67;100.00;101593.22;5022204;28;20050;-76
2023/09/08 01:23:12;;;;;;;40.15;38.05;;;;;;;14.98;100.00;101591.66;5016429;28;20060;-76
2023/09/08 01:25:47;;;;;;;39.83;37.53;;;;;;;15.10;100.00;101606.00;5020338;28;20085;-76
2023/09/08 01:28:15;;;;;;;42.00;39.70;;;;;;;15.25;100.00;101598.50;5017981;28;20064;-76
2023/09/08 01:30:42;;;;;;;37.75;35.55;;;;;;;15.21;100.00;101601.81;5018007;28;20457;-75
2023/09/08 01:33:10;;;;;;;39.63;37.42;;;;;;;14.63;100.00;101597.34;5018445;28;20045;-76
2023/09/08 01:35:37;;;;;;;36.05;33.78;;;;;;;14.93;100.00;101596.81;5028532;28;20049;-75
2023/09/08 01:38:14;;;;;;;39.50;37.30;;;;;;;15.12;100.00;101594.03;5017141;28;20050;-76
2023/09/08 01:40:42;;;;;;;37.17;35.25;;;;;;;14.38;100.00;101590.00;5025485;28;20052;-76
2023/09/08 01:43:10;;;;;;;34.75;32.75;;;;;;;14.83;100.00;101595.44;5018870;28;20052;-76
2023/09/08 01:45:37;;;;;;;32.08;30.15;;;;;;;14.56;100.00;101596.56;5019425;28;20050;-76
2023/09/08 01:48:06;;;;;;;33.47;31.58;;;;;;;14.94;100.00;101596.59;5017790;28;20053;-76
2023/09/08 01:50:35;;;;;;;30.45;28.65;;;;;;;14.51;100.00;101605.19;5020075;28;20046;-76
2023/09/08 01:53:03;;;;;;;29.27;27.63;;;;;;;14.88;100.00;101597.44;5021577;28;20136;-76
2023/09/08 01:55:29;;;;;;;34.28;32.47;;;;;;;15.00;100.00;101600.28;5025158;28;20057;-76
2023/09/08 01:57:58;;;;;;;37.55;35.55;;;;;;;14.89;100.00;101596.44;5017800;28;20055;-76
2023/09/08 02:00:25;;;;;;;37.15;35.25;;;;;;;14.77;100.00;101600.81;5025309;28;20049;-76
2023/09/08 02:02:51;;;;;;;36.20;34.35;;;;;;;14.89;100.00;101591.09;5023708;28;20045;-76
2023/09/08 02:05:18;;;;;;;35.45;33.75;;;;;;;14.96;100.00;101599.06;5025632;28;20049;-76
2023/09/08 02:07:45;;;;;;;44.50;42.47;;;;;;;14.83;100.00;101602.63;5030988;28;20049;-76
2023/09/08 02:10:12;;;;;;;40.08;38.28;;;;;;;14.84;100.00;101601.59;5031345;28;20446;-76
2023/09/08 02:12:40;;;;;;;41.22;39.42;;;;;;;14.57;100.00;101595.53;5031558;28;20041;-75
2023/09/08 02:15:11;;;;;;;36.17;34.38;;;;;;;14.36;100.00;101601.91;5023416;28;20129;-76
2023/09/08 02:17:37;;;;;;;36.42;34.53;;;;;;;14.53;100.00;101611.16;5023406;28;20144;-77
2023/09/08 02:20:08;;;;;;;57.55;54.95;;;;;;;14.64;100.00;101601.66;5031591;28;20069;-77
2023/09/08 02:22:35;;;;;;;40.63;38.63;;;;;;;14.55;100.00;101617.09;5026926;28;20054;-76
2023/09/08 02:25:02;;;;;;;44.45;42.45;;;;;;;14.30;100.00;101618.78;5025758;28;20050;-77
2023/09/08 02:27:28;;;;;;;43.85;41.63;;;;;;;13.87;100.00;101613.91;5025135;28;20049;-76
2023/09/08 02:29:55;;;;;;;40.05;38.15;;;;;;;14.10;100.00;101614.31;5028233;28;20057;-76
2023/09/08 02:32:23;;;;;;;39.63;37.63;;;;;;;14.09;100.00;101614.50;5015709;28;20053;-76
2023/09/08 02:34:50;;;;;;;60.63;58.13;;;;;;;14.24;100.00;101612.44;5013718;28;20061;-76
2023/09/08 02:37:18;;;;;;;49.50;47.25;;;;;;;14.47;100.00;101611.16;5020760;28;20511;-77
2023/09/08 02:39:45;;;;;;;51.97;49.78;;;;;;;14.65;100.00;101609.47;5014053;28;20097;-77
2023/09/08 02:42:12;;;;;;;54.25;51.90;;;;;;;14.55;100.00;101614.44;5031364;28;20502;-76
2023/09/08 02:44:39;;;;;;;49.25;47.20;;;;;;;14.55;100.00;101603.75;5027217;28;20045;-77
2023/09/08 02:47:06;;;;;;;36.10;34.40;;;;;;;14.51;100.00;101612.38;5015947;28;20041;-77
2023/09/08 02:49:36;;;;;;;45.35;43.35;;;;;;;14.33;100.00;101602.34;5015845;28;20050;-76
2023/09/08 02:52:09;;;;;;;54.85;52.45;;;;;;;14.16;100.00;101608.13;5022155;28;20065;-76
2023/09/08 02:54:52;;;;;;;46.58;44.28;;;;;;;14.29;100.00;101612.63;5027636;28;20049;-77
2023/09/08 02:57:29;;;;;;;43.55;41.38;;;;;;;14.02;100.00;101608.34;5015319;28;20069;-76
2023/09/08 02:59:57;;;;;;;45.13;42.92;;;;;;;13.83;100.00;101604.66;5017833;28;20054;-77
2023/09/08 03:02:31;;;;;;;45.53;43.33;;;;;;;13.98;100.00;101600.75;5025023;28;20049;-76
2023/09/08 03:05:06;;;;;;;50.03;47.63;;;;;;;13.85;100.00;101599.94;5029700;28;20054;-76
2023/09/08 03:07:37;;;;;;;47.63;45.25;;;;;;;14.07;100.00;101593.34;5021899;28;20058;-76
2023/09/08 03:10:07;;;;;;;64.05;61.00;;;;;;;14.09;100.00;101588.59;5030302;28;20049;-76
2023/09/08 03:12:37;;;;;;;56.38;53.58;;;;;;;13.74;100.00;101593.38;5020164;28;20053;-76
2023/09/08 03:15:06;;;;;;;56.55;53.75;;;;;;;13.97;100.00;101590.28;5014200;28;20046;-76
2023/09/08 03:17:34;;;;;;;59.13;56.33;;;;;;;13.95;100.00;101600.34;5023309;28;20049;-76
2023/09/08 03:20:01;;;;;;;48.78;46.28;;;;;;;13.89;100.00;101598.50;5027956;28;20050;-76
2023/09/08 03:22:29;;;;;;;54.20;51.60;;;;;;;14.00;100.00;101597.06;5019473;28;20046;-77
2023/09/08 03:24:56;;;;;;;48.78;46.22;;;;;;;14.04;100.00;101596.44;5023327;28;20076;-76
2023/09/08 03:27:23;;;;;;;49.95;47.45;;;;;;;14.08;100.00;101602.19;5023926;28;20128;-77
2023/09/08 03:29:49;;;;;;;48.63;46.28;;;;;;;13.68;100.00;101604.88;5031197;28;20041;-76
2023/09/08 03:32:25;;;;;;;48.58;46.17;;;;;;;13.62;100.00;101611.03;5019644;28;20513;-76
2023/09/08 03:34:52;;;;;;;42.45;40.17;;;;;;;13.24;100.00;101601.69;5023412;28;20534;-76
2023/09/08 03:37:19;;;;;;;56.03;53.38;;;;;;;13.93;100.00;101599.72;5021237;28;20055;-76
2023/09/08 03:39:47;;;;;;;49.17;46.67;;;;;;;14.12;100.00;101604.22;5032747;28;20049;-76
2023/09/08 03:42:15;;;;;;;52.63;50.03;;;;;;;14.42;100.00;101607.25;5022734;28;20435;-76
2023/09/08 03:44:42;;;;;;;41.70;39.40;;;;;;;14.38;100.00;101608.69;5030384;28;20045;-76
2023/09/08 03:47:09;;;;;;;31.05;29.35;;;;;;;13.52;100.00;101601.59;5033306;28;20095;-76
2023/09/08 03:49:36;;;;;;;26.50;25.00;;;;;;;13.87;100.00;101617.41;5031286;28;20060;-76
2023/09/08 03:52:03;;;;;;;28.65;27.08;;;;;;;14.03;100.00;101613.47;5028979;28;20056;-77
2023/09/08 03:54:31;;;;;;;24.85;23.35;;;;;;;14.10;100.00;101614.31;5021497;28;20049;-76
2023/09/08 03:56:59;;;;;;;25.27;23.67;;;;;;;13.86;100.00;101612.28;5030292;28;20132;-76
2023/09/08 03:59:26;;;;;;;25.70;24.13;;;;;;;13.83;100.00;101629.53;5027377;28;20044;-76
2023/09/08 04:01:55;;;;;;;24.55;23.10;;;;;;;13.28;100.00;101624.31;5025060;28;20049;-77
2023/09/08 04:04:22;;;;;;;23.52;22.23;;;;;;;14.00;100.00;101623.75;5014456;28;20050;-77
2023/09/08 04:06:49;;;;;;;22.27;20.98;;;;;;;13.77;100.00;101617.00;5018712;28;20046;-76
2023/09/08 04:09:15;;;;;;;25.65;24.08;;;;;;;14.09;100.00;101626.00;5021522;28;20450;-77
2023/09/08 04:11:42;;;;;;;23.40;21.98;;;;;;;14.04;100.00;101633.00;5033579;28;20434;-77
2023/09/08 04:14:10;;;;;;;23.65;22.35;;;;;;;14.00;100.00;101626.44;5004837;28;20053;-76
2023/09/08 04:16:37;;;;;;;24.60;23.25;;;;;;;14.30;100.00;101632.16;4997963;28;20046;-77
2023/09/08 04:19:07;;;;;;;22.90;21.60;;;;;;;14.34;100.00;101630.69;4995646;28;20046;-77
2023/09/08 04:21:33;;;;;;;22.77;21.48;;;;;;;14.61;100.00;101626.97;5003039;28;20050;-77
2023/09/08 04:24:00;;;;;;;21.95;20.65;;;;;;;14.28;100.00;101639.53;5000132;28;20057;-76
2023/09/08 04:26:27;;;;;;;22.17;20.88;;;;;;;14.44;100.00;101633.78;4996857;28;20137;-76
2023/09/08 04:28:54;;;;;;;21.85;20.48;;;;;;;14.80;100.00;101638.63;5003616;28;20431;-77
2023/09/08 04:31:22;;;;;;;24.20;22.60;;;;;;;15.10;100.00;101633.56;5001199;28;20483;-76
2023/09/08 04:33:49;;;;;;;24.20;22.70;;;;;;;15.15;100.00;101640.13;5000916;28;20054;-76
2023/09/08 04:36:16;;;;;;;22.90;21.50;;;;;;;15.10;100.00;101636.25;5000175;28;20431;-76
2023/09/08 04:38:44;;;;;;;22.35;20.85;;;;;;;15.01;100.00;101640.19;5005511;28;20045;-76
2023/09/08 04:41:11;;;;;;;22.85;21.45;;;;;;;15.27;100.00;101649.94;4999667;28;20042;-77
2023/09/08 04:43:38;;;;;;;24.70;23.10;;;;;;;15.37;100.00;101637.94;5001824;28;20458;-76
2023/09/08 04:46:05;;;;;;;23.20;21.70;;;;;;;15.45;100.00;101641.19;4996376;28;20054;-77
2023/09/08 04:48:35;;;;;;;22.80;21.40;;;;;;;15.57;100.00;101633.28;5000614;28;20431;-76
2023/09/08 04:51:02;;;;;;;23.58;22.13;;;;;;;15.78;100.00;101637.50;5000129;28;20140;-77
2023/09/08 04:53:29;;;;;;;21.92;20.52;;;;;;;15.68;100.00;101640.66;4653082;28;10000507;-76
2023/09/08 04:55:56;;;;;;;22.90;21.40;;;;;;;15.84;100.00;101641.16;4991552;28;20422;-76
2023/09/08 04:58:23;;;;;;;23.77;22.27;;;;;;;15.83;100.00;101637.66;4999186;28;20500;-76
2023/09/08 05:00:50;;;;;;;24.60;23.10;;;;;;;16.01;100.00;101651.09;4996218;28;20058;-77
2023/09/08 05:03:16;;;;;;;22.70;21.23;;;;;;;15.64;100.00;101649.28;4998825;28;20054;-76
2023/09/08 05:05:45;;;;;;;19.80;18.50;;;;;;;16.14;100.00;101644.00;4996935;28;20056;-77
2023/09/08 05:08:12;;;;;;;21.38;20.00;;;;;;;16.37;100.00;101637.97;4994685;28;20076;-76
2023/09/08 05:10:39;;;;;;;23.80;22.30;;;;;;;16.27;100.00;101643.84;4996867;28;20053;-76
2023/09/08 05:13:06;;;;;;;22.85;21.35;;;;;;;16.43;100.00;101643.28;4993806;28;20041;-77
2023/09/08 05:15:33;;;;;;;23.75;22.35;;;;;;;16.55;100.00;101646.06;4994175;28;20165;-76
2023/09/08 05:18:00;;;;;;;23.38;21.67;;;;;;;16.82;100.00;101641.22;4995471;28;20145;-76
2023/09/08 05:20:27;;;;;;;22.30;20.90;;;;;;;16.88;100.00;101652.91;4992395;28;20129;-76
2023/09/08 05:22:55;;;;;;;24.42;22.92;;;;;;;16.91;100.00;101652.47;4994214;28;20061;-76
2023/09/08 05:25:22;;;;;;;23.40;21.90;;;;;;;16.87;100.00;101645.91;4992988;28;20069;-76
2023/09/08 05:27:49;;;;;;;24.95;23.50;;;;;;;16.67;100.00;101643.44;4996198;28;20058;-77
2023/09/08 05:30:16;;;;;;;26.48;24.77;;;;;;;17.32;100.00;101642.84;4997906;28;20143;-77
2023/09/08 05:32:43;;;;;;;26.52;25.02;;;;;;;17.31;100.00;101646.59;4997158;28;20543;-76
2023/09/08 05:35:10;;;;;;;25.92;24.33;;;;;;;17.31;100.00;101644.72;4995884;28;20052;-76
2023/09/08 05:37:37;;;;;;;25.35;23.85;;;;;;;17.55;100.00;101639.41;4996284;28;20443;-77
2023/09/08 05:40:07;;;;;;;25.70;24.10;;;;;;;17.89;100.00;101643.25;4995210;28;20046;-76
2023/09/08 05:42:34;;;;;;;23.92;22.33;;;;;;;18.11;100.00;101643.50;4990165;28;20053;-76
2023/09/08 05:45:01;;;;;;;25.40;23.80;;;;;;;18.26;100.00;101645.72;4992266;28;20057;-76
2023/09/08 05:47:28;;;;;;;33.30;31.25;;;;;;;19.67;100.00;101646.13;4996810;28;20412;-77
2023/09/08 05:49:54;;;;;;;27.40;25.60;;;;;;;18.96;100.00;101642.09;4991804;28;20144;-77
2023/09/08 05:52:22;;;;;;;28.45;26.42;;;;;;;19.59;100.00;101641.13;4993896;28;20057;-76
2023/09/08 05:54:49;;;;;;;28.20;26.52;;;;;;;20.22;100.00;101647.25;4995910;28;20054;-77
2023/09/08 05:57:17;;;;;;;26.95;25.42;;;;;;;20.85;100.00;101647.84;4993439;28;20046;-77
2023/09/08 05:59:45;;;;;;;27.10;25.50;;;;;;;21.59;100.00;101643.75;4997462;28;20054;-77
2023/09/08 06:02:12;;;;;;;26.38;24.63;;;;;;;22.24;100.00;101648.06;5001766;28;20042;-77
2023/09/08 06:04:39;;;;;;;26.85;25.25;;;;;;;22.10;100.00;101642.25;4996854;28;20620;-77
2023/09/08 06:07:06;;;;;;;25.33;23.83;;;;;;;22.71;100.00;101649.91;4995166;28;20411;-77
2023/09/08 06:09:33;;;;;;;25.30;23.80;;;;;;;22.61;100.00;101642.56;4995625;28;20061;-77
2023/09/08 06:12:00;;;;;;;28.58;27.08;;;;;;;22.64;100.00;101650.16;5000617;28;20404;-77
2023/09/08 06:14:31;;;;;;;27.98;26.30;;;;;;;23.30;100.00;101646.06;5000514;28;20555;-77
2023/09/08 06:16:58;;;;;;;25.08;23.48;;;;;;;23.19;100.00;101647.13;4995039;28;20462;-76
2023/09/08 06:19:25;;;;;;;25.58;23.98;;;;;;;23.30;100.00;101649.56;5001313;28;20053;-76
2023/09/08 06:21:51;;;;;;;24.80;23.30;;;;;;;23.42;100.00;101653.91;5001084;28;20064;-77
2023/09/08 06:24:18;;;;;;;24.75;23.25;;;;;;;23.18;100.00;101659.84;4998821;28;20050;-77
2023/09/08 06:26:45;;;;;;;23.92;22.42;;;;;;;23.23;100.00;101651.72;5002762;28;20488;-77
2023/09/08 06:29:12;;;;;;;24.88;23.27;;;;;;;23.29;100.00;101653.34;4995790;28;20042;-77
2023/09/08 06:31:40;;;;;;;23.92;22.42;;;;;;;23.85;100.00;101665.38;5001714;28;20503;-77
2023/09/08 06:34:07;;;;;;;24.00;22.50;;;;;;;23.41;100.00;101663.94;5006247;28;20049;-77
2023/09/08 06:36:37;;;;;;;24.20;22.70;;;;;;;23.23;100.00;101672.59;4997293;28;20058;-77
2023/09/08 06:39:06;;;;;;;26.15;24.65;;;;;;;23.68;100.00;101673.72;5005159;28;20104;-77
2023/09/08 06:41:32;;;;;;;25.35;23.75;;;;;;;23.73;100.00;101671.06;5004202;28;20057;-77
2023/09/08 06:44:00;;;;;;;25.58;23.98;;;;;;;23.73;100.00;101665.63;5003966;28;20045;-76
2023/09/08 06:46:27;;;;;;;25.15;23.55;;;;;;;23.83;100.00;101668.34;5007334;28;20077;-77
2023/09/08 06:48:55;;;;;;;26.50;24.50;;;;;;;23.81;100.00;101666.97;5007727;28;20441;-77
2023/09/08 06:51:22;;;;;;;25.50;23.80;;;;;;;24.16;100.00;101661.50;5003883;28;20050;-77
2023/09/08 06:53:56;;;;;;;25.55;23.95;;;;;;;24.11;100.00;101666.94;5003652;28;20504;-77
2023/09/08 06:56:23;;;;;;;25.63;24.02;;;;;;;24.40;100.00;101674.50;5001147;28;20053;-77
2023/09/08 06:58:50;;;;;;;26.77;24.50;;;;;;;24.36;100.00;101671.53;5002519;28;20046;-77
2023/09/08 07:01:16;;;;;;;28.40;26.70;;;;;;;24.78;100.00;101677.63;5004284;28;20053;-77
2023/09/08 07:03:43;;;;;;;23.25;21.75;;;;;;;24.58;100.00;101675.84;5006015;28;20048;-77
2023/09/08 07:06:13;;;;;;;22.70;21.13;;;;;;;23.87;100.00;101677.53;5004719;28;20050;-77
2023/09/08 07:08:40;;;;;;;25.95;24.25;;;;;;;23.83;100.00;101681.09;4996164;28;20200;-77
2023/09/08 07:11:07;;;;;;;24.50;22.80;;;;;;;23.93;100.00;101675.66;5003623;28;20057;-77
2023/09/08 07:13:34;;;;;;;21.70;20.20;;;;;;;23.85;100.00;101673.50;5004002;28;20081;-77
2023/09/08 07:16:01;;;;;;;22.38;20.88;;;;;;;24.30;100.00;101672.63;4997674;28;20081;-77
2023/09/08 07:18:28;;;;;;;21.80;20.30;;;;;;;24.54;100.00;101681.00;5004733;28;20056;-77
2023/09/08 07:20:55;;;;;;;26.08;24.27;;;;;;;24.82;100.00;101671.38;5004023;28;20057;-77
2023/09/08 07:23:26;;;;;;;26.50;24.80;;;;;;;24.10;100.00;101675.38;5000045;28;20107;-77
2023/09/08 07:25:53;;;;;;;25.20;23.60;;;;;;;24.40;100.00;101671.78;5000121;28;20527;-77
2023/09/08 07:28:20;;;;;;;25.23;23.52;;;;;;;25.03;100.00;101672.09;4999626;28;21312;-76
2023/09/08 07:30:47;;;;;;;26.00;24.20;;;;;;;24.57;100.00;101668.75;5001622;28;20424;-77
2023/09/08 07:33:14;;;;;;;25.77;24.08;;;;;;;24.76;100.00;101669.78;5003034;28;20060;-77
2023/09/08 07:35:41;;;;;;;26.02;24.23;;;;;;;24.94;100.00;101670.25;5000979;28;20049;-77
2023/09/08 07:38:08;;;;;;;27.15;25.25;;;;;;;25.24;100.00;101669.31;5001664;28;20056;-77
2023/09/08 07:40:37;;;;;;;25.58;23.98;;;;;;;24.87;100.00;101674.09;5006820;28;20046;-77
2023/09/08 07:43:04;;;;;;;23.70;22.10;;;;;;;24.87;100.00;101678.69;5005951;28;20038;-77
2023/09/08 07:45:31;;;;;;;25.00;23.40;;;;;;;24.77;100.00;101676.03;5004274;28;20046;-77
2023/09/08 07:47:58;;;;;;;24.80;22.92;;;;;;;24.63;100.00;101676.63;5004088;28;20125;-77
2023/09/08 07:50:26;;;;;;;26.42;24.65;;;;;;;25.20;100.00;101679.91;5004363;28;20045;-77
2023/09/08 07:52:57;;;;;;;24.25;22.65;;;;;;;25.33;100.00;101665.69;5004879;28;20519;-77
2023/09/08 07:55:27;;;;;;;24.75;23.05;;;;;;;26.04;100.00;101667.03;4996210;28;20049;-77
2023/09/08 07:57:57;;;;;;;23.73;22.13;;;;;;;26.01;100.00;101675.78;4999492;28;20058;-77
2023/09/08 08:00:24;;;;;;;24.95;23.02;;;;;;;25.86;100.00;101666.94;4993923;28;20038;-77
2023/09/08 08:02:52;;;;;;;26.55;24.60;;;;;;;25.56;100.00;101679.66;5000276;28;20056;-77
2023/09/08 08:05:20;;;;;;;25.77;24.08;;;;;;;25.57;100.00;101673.97;5005380;28;20069;-77
2023/09/08 08:07:46;;;;;;;24.10;22.40;;;;;;;25.68;100.00;101676.59;5002344;28;20439;-78
2023/09/08 08:10:16;;;;;;;23.52;21.92;;;;;;;25.59;100.00;101685.34;5004285;28;20052;-77
2023/09/08 08:12:44;;;;;;;24.92;23.23;;;;;;;25.24;100.00;101670.09;5003865;28;20266;-77
2023/09/08 08:15:12;;;;;;;25.13;23.45;;;;;;;25.51;100.00;101672.38;4998219;28;20045;-77
2023/09/08 08:17:43;;;;;;;23.95;22.40;;;;;;;25.60;100.00;101664.41;5002237;28;20503;-77
2023/09/08 08:20:17;;;;;;;25.02;23.42;;;;;;;25.70;100.00;101658.06;4999132;28;20440;-77
2023/09/08 08:22:45;;;;;;;24.23;22.63;;;;;;;25.72;100.00;101667.59;5002002;28;20077;-77
2023/09/08 08:25:12;;;;;;;24.38;22.77;;;;;;;25.92;100.00;101665.78;4962428;28;20077;-77
2023/09/08 08:27:40;;;;;;;24.45;22.95;;;;;;;26.42;100.00;101658.22;5003656;28;20443;-78
2023/09/08 08:30:08;;;;;;;27.13;25.50;;;;;;;26.47;100.00;101656.22;5002214;28;20046;-77
2023/09/08 08:32:36;;;;;;;24.58;22.98;;;;;;;27.13;100.00;101662.75;5003849;28;20053;-77
2023/09/08 08:35:05;;;;;;;27.88;26.13;;;;;;;27.44;100.00;101662.31;5003144;28;20042;-78
2023/09/08 08:37:32;;;;;;;29.23;27.00;;;;;;;28.16;100.00;101661.13;5005670;28;20057;-77
2023/09/08 08:39:59;;;;;;;27.35;25.55;;;;;;;27.22;100.00;101660.22;5004133;28;20053;-77
2023/09/08 08:42:32;;;;;;;26.65;24.85;;;;;;;27.86;100.00;101658.63;5002235;28;20084;-77
2023/09/08 08:44:59;;;;;;;26.98;25.17;;;;;;;28.20;100.00;101659.41;4996240;28;20049;-77
2023/09/08 08:47:28;;;;;;;27.83;26.02;;;;;;;28.71;100.00;101667.41;5008230;28;20041;-77
2023/09/08 08:49:58;;;;;;;26.48;24.77;;;;;;;28.98;100.00;101647.41;4997602;28;20056;-77
2023/09/08 08:52:25;;;;;;;26.85;25.15;;;;;;;28.26;100.00;101655.44;4999183;28;20100;-77
2023/09/08 08:54:52;;;;;;;26.02;24.23;;;;;;;28.97;100.00;101653.19;4993725;28;20056;-78
2023/09/08 08:57:19;;;;;;;28.15;26.25;;;;;;;28.45;100.00;101653.47;5001465;28;20084;-77
2023/09/08 08:59:48;;;;;;;26.65;24.75;;;;;;;28.59;100.00;101648.00;4996664;28;20133;-78
2023/09/08 09:02:15;;;;;;;26.88;24.95;;;;;;;29.48;100.00;101646.56;5004465;28;20050;-78
2023/09/08 09:04:42;;;;;;;26.38;24.58;;;;;;;28.60;100.00;101646.91;4996851;28;20150;-78
2023/09/08 09:07:12;;;;;;;26.95;25.15;;;;;;;28.66;100.00;101650.34;5000930;28;20052;-77
2023/09/08 09:09:40;;;;;;;26.35;24.45;;;;;;;28.76;100.00;101647.38;5002987;28;20509;-77
2023/09/08 09:12:10;;;;;;;27.15;25.33;;;;;;;29.80;100.00;101637.25;5006479;28;20050;-77
2023/09/08 09:14:36;;;;;;;25.95;24.05;;;;;;;29.52;100.00;101635.78;5006742;28;20050;-78
2023/09/08 09:17:07;;;;;;;26.38;24.48;;;;;;;29.50;100.00;101635.28;5001245;28;20038;-77
2023/09/08 09:19:35;;;;;;;26.80;24.90;;;;;;;28.68;100.00;101640.69;5002959;28;20050;-78
2023/09/08 09:22:03;;;;;;;28.27;26.38;;;;;;;29.49;100.00;101642.69;5000281;28;20053;-77
2023/09/08 09:24:33;;;;;;;30.55;28.60;;;;;;;29.50;100.00;101636.09;4996033;28;20060;-78
2023/09/08 09:27:00;;;;;;;26.80;25.00;;;;;;;30.19;100.00;101632.94;5000607;28;20038;-78
2023/09/08 09:29:29;;;;;;;29.77;27.90;;;;;;;30.34;100.00;101635.25;5005614;28;20045;-78
2023/09/08 09:31:57;;;;;;;30.08;28.38;;;;;;;30.76;100.00;101626.66;5001543;28;20100;-77
2023/09/08 09:34:25;;;;;;;30.42;27.55;;;;;;;29.41;100.00;101627.84;4999140;28;20433;-77
2023/09/08 09:36:52;;;;;;;26.98;25.08;;;;;;;30.02;100.00;101621.94;4998985;28;20061;-78
2023/09/08 09:39:20;;;;;;;26.83;24.92;;;;;;;30.68;100.00;101619.22;5002762;28;20057;-77
2023/09/08 09:41:49;;;;;;;31.13;28.88;;;;;;;30.62;100.00;101617.75;4999917;28;20052;-77
2023/09/08 09:44:17;;;;;;;27.42;25.52;;;;;;;30.67;100.00;101623.91;4988123;28;20229;-78
2023/09/08 09:46:47;;;;;;;24.40;22.80;;;;;;;29.07;100.00;101614.69;4992098;28;20046;-78
2023/09/08 09:49:14;;;;;;;26.05;24.00;;;;;;;29.31;100.00;101602.66;5003762;28;20046;-77
2023/09/08 09:51:44;;;;;;;28.25;26.35;;;;;;;29.37;100.00;101612.34;5001372;28;20054;-77
2023/09/08 09:54:12;;;;;;;25.23;23.52;;;;;;;29.48;100.00;101607.44;4997642;28;20047;-77
2023/09/08 09:56:40;;;;;;;27.80;25.70;;;;;;;29.08;100.00;101608.13;5001014;28;20050;-77
2023/09/08 09:59:12;;;;;;;27.70;25.70;;;;;;;29.37;100.00;101610.41;4997507;28;20558;-77
2023/09/08 10:01:40;;;;;;;29.08;27.17;;;;;;;29.53;100.00;101610.84;5002276;28;20426;-77
2023/09/08 10:04:08;;;;;;;27.02;25.33;;;;;;;29.28;100.00;101598.63;5001060;28;20050;-77
2023/09/08 10:06:39;;;;;;;24.80;23.10;;;;;;;28.35;100.00;101606.41;5002540;28;20490;-77
2023/09/08 10:09:13;;;;;;;25.90;24.10;;;;;;;28.31;100.00;101598.00;4995411;28;20046;-77
2023/09/08 10:11:43;;;;;;;26.30;24.60;;;;;;;28.66;100.00;101606.59;4999383;28;20049;-77
2023/09/08 10:14:13;;;;;;;28.10;26.10;;;;;;;28.95;100.00;101592.53;5003296;28;20042;-77
2023/09/08 10:16:41;;;;;;;25.77;24.17;;;;;;;28.74;100.00;101603.13;4999920;28;20053;-78
2023/09/08 10:19:10;;;;;;;26.27;24.48;;;;;;;28.12;100.00;101597.31;5000957;28;20431;-78
2023/09/08 10:21:41;;;;;;;25.83;24.13;;;;;;;27.70;100.00;101604.63;5000184;28;20061;-77
2023/09/08 10:24:15;;;;;;;27.50;25.70;;;;;;;27.56;100.00;101601.84;5000846;28;20046;-77
2023/09/08 10:26:45;;;;;;;28.00;26.13;;;;;;;27.61;100.00;101593.56;4996177;28;20508;-77
2023/09/08 10:29:15;;;;;;;25.27;23.48;;;;;;;27.89;100.00;101591.72;5003511;28;20486;-77
2023/09/08 10:31:43;;;;;;;26.98;25.13;;;;;;;27.97;100.00;101582.84;5008867;28;20057;-77
2023/09/08 10:34:10;;;;;;;26.77;25.08;;;;;;;28.40;100.00;101573.50;5006285;28;20519;-77
2023/09/08 10:36:38;;;;;;;25.35;23.65;;;;;;;28.12;100.00;101580.94;4999914;28;20054;-77
2023/09/08 10:39:38;;;;;;;23.65;22.05;;;;;;;27.99;100.00;101580.63;4994890;28;20504;-77
2023/09/08 10:42:29;;;;;;;24.52;22.73;;;;;;;28.10;100.00;101575.75;4972456;28;20077;-77
2023/09/08 10:45:04;;;;;;;25.60;24.00;;;;;;;28.66;100.00;101569.16;4997995;28;20047;-77
2023/09/08 10:47:56;;;;;;;26.92;25.23;;;;;;;28.45;100.00;101571.53;4997218;28;20062;-77
2023/09/08 10:50:28;;;;;;;27.13;25.33;;;;;;;28.70;100.00;101572.06;5005999;28;20054;-77
2023/09/08 10:53:06;;;;;;;25.60;23.67;;;;;;;29.35;95.90;101577.13;4994539;28;20312;-77
2023/09/08 10:55:37;;;;;;;23.42;21.83;;;;;;;29.34;99.01;101570.00;5002547;28;20068;-77
2023/09/08 10:58:05;;;;;;;35.87;27.53;;;;;;;30.16;86.60;101562.34;5002954;28;20062;-78
2023/09/08 11:00:46;;;;;;;25.00;23.30;;;;;;;31.35;73.94;101560.34;5005653;28;20305;-77
2023/09/08 11:03:14;;;;;;;26.73;24.92;;;;;;;30.72;81.36;101565.38;4995863;28;20423;-77
2023/09/08 11:05:44;;;;;;;26.00;24.40;;;;;;;29.89;81.60;101566.13;4996114;28;20050;-77
2023/09/08 11:08:11;;;;;;;26.70;25.10;;;;;;;29.30;90.01;101558.09;5007017;28;20042;-77